Time;durP1;ratioP1;P1;durP2;ratioP2;P2;SDS_P1;SDS_P2;PMS_P1;PMS_P2;Temp;Humidity;BMP_temperature;BMP_pressure;BME280_temperature;BME280_humidity;BME280_pressure;Samples;Min_cycle;Max_cycle;Signal;HPM_P1;HPM_P2
2022/01/21 00:00:17;;;;;;;17.90;4.55;;;;;;;-0.40;99.91;103177.28;1032198;28;20313;-76
2022/01/21 00:00:48;;;;;;;17.65;5.45;;;;;;;-0.37;99.52;103171.88;1024767;28;20346;-75
2022/01/21 00:01:21;;;;;;;27.15;5.57;;;;;;;-0.47;99.58;103173.34;1024299;28;20321;-75
2022/01/21 00:01:53;;;;;;;23.92;5.07;;;;;;;-0.46;100.00;103175.84;1025328;28;20321;-76
2022/01/21 00:02:26;;;;;;;22.85;6.10;;;;;;;-0.45;99.85;103180.16;1033453;28;20320;-75
2022/01/21 00:02:57;;;;;;;22.25;4.43;;;;;;;-0.44;99.98;103173.16;1040523;28;20319;-75
2022/01/21 00:03:29;;;;;;;27.17;5.47;;;;;;;-0.46;99.74;103168.00;1040025;28;20314;-77
2022/01/21 00:04:01;;;;;;;28.75;5.43;;;;;;;-0.48;99.82;103167.25;1040539;28;20312;-75
2022/01/21 00:04:34;;;;;;;26.15;5.05;;;;;;;-0.47;99.75;103168.94;1036022;28;20335;-75
2022/01/21 00:05:07;;;;;;;22.52;4.60;;;;;;;-0.45;99.72;103163.63;1035687;28;20354;-75
2022/01/21 00:05:38;;;;;;;21.52;5.22;;;;;;;-0.45;99.60;103167.06;1036061;28;20300;-75
2022/01/21 00:06:10;;;;;;;27.58;4.82;;;;;;;-0.41;100.00;103160.72;1037851;28;20330;-75
2022/01/21 00:06:41;;;;;;;24.45;5.38;;;;;;;-0.43;100.00;103159.97;1040305;28;20326;-75
2022/01/21 00:07:13;;;;;;;24.25;4.30;;;;;;;-0.42;100.00;103169.50;1036479;28;20639;-75
2022/01/21 00:07:45;;;;;;;24.63;4.95;;;;;;;-0.40;100.00;103166.81;1036186;28;20674;-75
2022/01/21 00:08:16;;;;;;;26.38;5.43;;;;;;;-0.40;99.89;103165.03;1036694;28;20691;-75
2022/01/21 00:08:51;;;;;;;19.55;4.72;;;;;;;-0.42;100.00;103164.28;1039835;28;20307;-75
2022/01/21 00:09:22;;;;;;;18.35;4.40;;;;;;;-0.35;100.00;103168.22;1040163;28;20659;-75
2022/01/21 00:09:54;;;;;;;21.77;5.68;;;;;;;-0.35;100.00;103163.00;1036357;28;20304;-75
2022/01/21 00:10:25;;;;;;;30.80;6.40;;;;;;;-0.28;100.00;103165.25;1037251;28;20320;-75
2022/01/21 00:10:57;;;;;;;26.75;5.13;;;;;;;-0.27;100.00;103161.69;1040213;28;20315;-76
2022/01/21 00:11:30;;;;;;;20.40;4.03;;;;;;;-0.27;100.00;103169.56;1040419;28;20314;-75
2022/01/21 00:12:02;;;;;;;19.73;4.47;;;;;;;-0.26;100.00;103166.03;1039875;28;20701;-76
2022/01/21 00:12:35;;;;;;;29.08;4.68;;;;;;;-0.24;100.00;103167.63;1036513;28;20312;-75
2022/01/21 00:13:16;;;;;;;25.92;4.18;;;;;;;-0.23;100.00;103173.72;1036197;28;20309;-75
2022/01/21 00:13:49;;;;;;;22.83;4.53;;;;;;;-0.25;100.00;103171.19;1038571;28;20309;-75
2022/01/21 00:14:20;;;;;;;20.65;4.50;;;;;;;-0.23;100.00;103171.94;1040282;28;20674;-74
2022/01/21 00:14:52;;;;;;;29.77;4.32;;;;;;;-0.20;100.00;103178.75;1040239;28;20319;-75
2022/01/21 00:15:23;;;;;;;25.88;4.97;;;;;;;-0.20;100.00;103173.53;1040431;28;20307;-75
2022/01/21 00:15:55;;;;;;;21.67;4.18;;;;;;;-0.22;100.00;103180.63;1040244;28;20681;-75
2022/01/21 00:16:28;;;;;;;19.77;5.10;;;;;;;-0.19;100.00;103180.44;1040521;28;20308;-75
2022/01/21 00:16:59;;;;;;;34.83;5.85;;;;;;;-0.19;100.00;103180.44;1040475;28;20323;-75
2022/01/21 00:17:31;;;;;;;33.25;5.80;;;;;;;-0.23;100.00;103173.72;1040377;28;20386;-75
2022/01/21 00:18:04;;;;;;;19.35;5.13;;;;;;;-0.25;99.98;103181.66;1039814;28;20308;-77
2022/01/21 00:18:38;;;;;;;22.00;5.00;;;;;;;-0.20;99.96;103181.38;1040248;28;20820;-75
2022/01/21 00:19:13;;;;;;;20.52;3.67;;;;;;;-0.18;100.00;103176.91;1040275;28;20786;-76
2022/01/21 00:19:48;;;;;;;27.67;4.68;;;;;;;-0.18;100.00;103182.13;1040229;28;20303;-74
2022/01/21 00:30:23;;;;;;;9.55;2.13;;;;;;;0.15;99.86;103188.03;1040694;28;20792;-76
2022/01/21 00:30:55;;;;;;;23.75;3.90;;;;;;;0.22;99.95;103184.09;1040117;28;20307;-75
2022/01/21 00:31:27;;;;;;;21.75;2.92;;;;;;;0.25;99.69;103186.53;1040797;28;20315;-74
2022/01/21 00:31:58;;;;;;;14.32;2.80;;;;;;;0.29;100.00;103182.81;1040493;28;20308;-76
2022/01/21 00:32:30;;;;;;;22.70;3.55;;;;;;;0.34;100.00;103192.19;1040306;28;20874;-75
2022/01/21 00:33:01;;;;;;;20.77;2.95;;;;;;;0.36;100.00;103183.28;1040424;28;20354;-75
2022/01/21 00:33:33;;;;;;;20.88;3.78;;;;;;;0.37;99.98;103199.88;1040211;28;20308;-76
2022/01/21 00:34:04;;;;;;;18.73;2.63;;;;;;;0.36;99.53;103192.94;1040234;28;20299;-75
2022/01/21 00:34:36;;;;;;;24.13;3.58;;;;;;;0.29;99.73;103190.69;1040318;28;20674;-76
2022/01/21 00:35:08;;;;;;;15.50;2.42;;;;;;;0.29;99.39;103190.69;1040268;28;20308;-75
2022/01/21 00:35:40;;;;;;;11.38;3.38;;;;;;;0.29;99.47;103195.94;1036266;28;20386;-76
2022/01/21 00:36:13;;;;;;;7.97;3.38;;;;;;;0.29;99.62;103193.31;1039763;28;20308;-76
2022/01/21 00:36:44;;;;;;;13.75;3.10;;;;;;;0.30;99.34;103195.00;1040479;28;20651;-75
2022/01/21 00:37:16;;;;;;;23.55;4.18;;;;;;;0.32;99.14;103188.81;1041963;28;20308;-75
2022/01/21 00:37:49;;;;;;;12.38;3.33;;;;;;;0.31;99.35;103185.34;1044635;28;20304;-77
2022/01/21 00:38:23;;;;;;;16.50;2.65;;;;;;;0.35;99.38;103181.59;1039843;28;20300;-75
2022/01/21 00:38:56;;;;;;;18.65;3.45;;;;;;;0.36;99.14;103185.06;1036423;28;20376;-76
2022/01/21 00:39:30;;;;;;;23.80;3.83;;;;;;;0.33;99.23;103185.25;1037139;28;20315;-75
2022/01/21 00:40:04;;;;;;;16.33;4.03;;;;;;;0.32;99.81;103186.19;1041827;28;20308;-76
2022/01/21 00:40:36;;;;;;;11.95;2.60;;;;;;;0.35;99.26;103176.38;1042072;28;20386;-75
2022/01/21 00:41:08;;;;;;;15.50;2.33;;;;;;;0.35;99.18;103186.00;1044560;28;20308;-76
2022/01/21 00:41:52;;;;;;;18.50;2.97;;;;;;;0.41;99.00;103183.84;1044397;28;20307;-76
2022/01/21 00:43:45;;;;;;;13.15;2.15;;;;;;;0.36;99.12;103185.06;1036201;28;20308;-75
2022/01/21 00:44:16;;;;;;;13.15;2.80;;;;;;;0.43;98.81;103181.13;1036078;28;20305;-76
2022/01/21 00:44:49;;;;;;;15.05;2.60;;;;;;;0.41;99.03;103191.72;1036056;28;20306;-75
2022/01/21 00:45:21;;;;;;;12.52;2.25;;;;;;;0.41;98.96;103193.50;1039017;28;20307;-76
2022/01/21 00:45:53;;;;;;;16.08;3.45;;;;;;;0.39;98.94;103187.50;1041449;28;20315;-76
2022/01/21 00:46:24;;;;;;;12.18;2.63;;;;;;;0.41;99.04;103190.88;1044362;28;20697;-75
2022/01/21 00:46:56;;;;;;;13.07;2.55;;;;;;;0.44;98.88;103186.28;1044340;28;20311;-75
2022/01/21 00:47:28;;;;;;;24.85;3.38;;;;;;;0.44;98.88;103185.44;1043955;28;20314;-75
2022/01/21 00:47:59;;;;;;;11.60;2.53;;;;;;;0.41;98.52;103185.63;1040485;28;20790;-75
2022/01/21 00:48:31;;;;;;;17.63;3.15;;;;;;;0.42;98.77;103177.66;1036223;28;20461;-75
2022/01/21 00:49:03;;;;;;;16.58;3.22;;;;;;;0.45;98.48;103174.03;1036082;28;20309;-75
2022/01/21 00:49:35;;;;;;;17.20;3.38;;;;;;;0.44;98.63;103177.56;1031994;28;20305;-75
2022/01/21 00:50:07;;;;;;;8.90;2.25;;;;;;;0.40;99.00;103173.47;1033355;28;20313;-75
2022/01/21 00:50:38;;;;;;;15.45;2.65;;;;;;;0.39;98.88;103177.84;1031903;28;20347;-75
2022/01/21 00:51:10;;;;;;;12.88;3.67;;;;;;;0.34;98.76;103176.47;1032878;28;20309;-75
2022/01/21 00:51:42;;;;;;;19.73;2.58;;;;;;;0.40;99.23;103174.31;1035991;28;20320;-74
2022/01/21 00:52:13;;;;;;;17.08;4.45;;;;;;;0.30;98.90;103171.41;1036938;28;20304;-77
2022/01/21 00:52:45;;;;;;;19.50;2.40;;;;;;;0.28;99.19;103169.81;1040335;28;20312;-76
2022/01/21 00:53:16;;;;;;;11.05;1.95;;;;;;;0.26;99.25;103166.41;1040133;28;20308;-76
2022/01/21 00:53:48;;;;;;;9.50;2.58;;;;;;;0.32;98.64;103173.94;1040241;28;20319;-76
2022/01/21 00:54:19;;;;;;;21.23;3.10;;;;;;;0.30;98.86;103176.66;1035949;28;20726;-77
2022/01/21 00:54:51;;;;;;;12.85;2.42;;;;;;;0.31;99.18;103180.09;1036039;28;20398;-76
2022/01/21 00:55:22;;;;;;;10.35;2.50;;;;;;;0.38;98.73;103177.94;1040251;28;20678;-76
2022/01/21 00:55:54;;;;;;;15.88;3.03;;;;;;;0.38;98.57;103177.94;1036692;28;20313;-75
2022/01/21 00:56:26;;;;;;;14.43;2.47;;;;;;;0.35;98.72;103188.63;1040158;28;20312;-76
2022/01/21 00:56:57;;;;;;;15.13;3.42;;;;;;;0.43;99.11;103183.75;1040104;28;20801;-77
2022/01/21 00:57:28;;;;;;;15.70;2.85;;;;;;;0.36;98.60;103179.81;1040688;28;20669;-77
2022/01/21 00:58:00;;;;;;;13.68;2.40;;;;;;;0.37;98.59;103177.13;1043726;28;20303;-76
2022/01/21 00:58:31;;;;;;;13.25;2.63;;;;;;;0.22;98.84;103176.22;1040355;28;20360;-75
2022/01/21 00:59:03;;;;;;;19.80;3.72;;;;;;;0.29;98.42;103174.97;1040306;28;20347;-76
2022/01/21 00:59:35;;;;;;;11.38;2.28;;;;;;;0.37;98.55;103178.88;1031709;28;20329;-76
2022/01/21 01:00:09;;;;;;;11.48;2.65;;;;;;;0.24;98.52;103171.75;1028431;28;20316;-76
2022/01/21 01:00:40;;;;;;;16.67;2.65;;;;;;;0.21;98.91;103177.16;1027855;28;20317;-76
2022/01/21 01:01:12;;;;;;;13.02;3.53;;;;;;;0.14;98.88;103173.22;1029796;28;20392;-76
2022/01/21 01:01:44;;;;;;;24.33;3.72;;;;;;;0.17;98.32;103174.81;1036681;28;20313;-76
2022/01/21 01:02:16;;;;;;;12.65;3.50;;;;;;;0.16;98.52;103181.84;1036740;28;20349;-76
2022/01/21 01:02:48;;;;;;;12.85;3.67;;;;;;;0.05;98.93;103186.03;1035638;28;20331;-76
2022/01/21 01:03:20;;;;;;;15.77;3.15;;;;;;;0.07;98.89;103177.16;1036020;28;20691;-76
2022/01/21 01:03:51;;;;;;;17.58;3.35;;;;;;;0.06;98.80;103180.72;1032659;28;20305;-75
2022/01/21 01:04:23;;;;;;;19.40;4.03;;;;;;;-0.03;98.69;103182.06;1036497;28;20335;-75
2022/01/21 01:04:54;;;;;;;12.20;3.28;;;;;;;0.00;98.91;103191.56;1036156;28;20666;-76
2022/01/21 01:05:29;;;;;;;14.40;3.15;;;;;;;0.00;99.22;103188.94;1036968;28;20391;-76
2022/01/21 01:06:01;;;;;;;15.80;2.83;;;;;;;-0.10;99.18;103185.16;1036089;28;20309;-76
2022/01/21 01:06:32;;;;;;;17.77;3.70;;;;;;;-0.12;99.11;103190.47;1036050;28;20320;-76
2022/01/21 01:07:05;;;;;;;16.38;3.22;;;;;;;-0.08;98.80;103193.75;1036075;28;20694;-76
2022/01/21 01:07:36;;;;;;;17.00;3.25;;;;;;;-0.09;99.03;103197.31;1032700;28;20309;-76
2022/01/21 01:08:08;;;;;;;21.83;3.65;;;;;;;-0.08;99.17;103193.75;1032535;28;20316;-76
2022/01/21 01:08:40;;;;;;;17.27;2.90;;;;;;;-0.09;98.89;103197.31;1036127;28;20312;-76
2022/01/21 01:09:11;;;;;;;8.63;2.75;;;;;;;-0.07;99.07;103198.91;1032106;28;20309;-76
2022/01/21 01:09:44;;;;;;;17.98;3.35;;;;;;;-0.12;99.14;103205.34;1036576;28;20771;-76
2022/01/21 01:10:23;;;;;;;15.70;3.15;;;;;;;-0.11;99.68;103209.66;1040206;28;20312;-77
2022/01/21 01:12:59;;;;;;;16.48;3.00;;;;;;;-0.36;99.89;103211.06;1040355;28;20307;-77
2022/01/21 01:20:13;;;;;;;20.15;3.00;;;;;;;-0.58;100.00;103197.47;1040076;28;20311;-76
2022/01/21 01:20:44;;;;;;;13.55;2.75;;;;;;;-0.58;100.00;103200.09;1041516;28;20315;-76
2022/01/21 01:21:16;;;;;;;20.00;2.50;;;;;;;-0.55;100.00;103199.91;1040018;28;20310;-76
2022/01/21 01:21:49;;;;;;;19.38;2.58;;;;;;;-0.53;100.00;103197.25;1040096;28;20331;-76
2022/01/21 01:22:26;;;;;;;11.75;2.50;;;;;;;-0.54;100.00;103199.00;1040353;28;20851;-76
2022/01/21 01:23:09;;;;;;;16.20;2.00;;;;;;;-0.55;100.00;103199.91;1037031;28;20715;-75
2022/01/21 01:27:52;;;;;;;11.68;2.47;;;;;;;-0.64;100.00;103193.44;1039731;28;20311;-76
2022/01/21 01:28:24;;;;;;;14.18;2.25;;;;;;;-0.64;100.00;103192.59;1040111;28;20304;-76
2022/01/21 01:28:55;;;;;;;11.65;2.45;;;;;;;-0.65;100.00;103191.75;1040312;28;20311;-76
2022/01/21 01:29:27;;;;;;;12.73;3.70;;;;;;;-0.62;100.00;103193.34;1040034;28;20308;-76
2022/01/21 01:30:00;;;;;;;18.95;2.40;;;;;;;-0.60;100.00;103201.09;1040150;28;20311;-75
2022/01/21 01:30:33;;;;;;;15.90;2.13;;;;;;;-0.58;100.00;103197.47;1036133;28;20301;-76
2022/01/21 01:31:04;;;;;;;14.30;2.78;;;;;;;-0.59;100.00;103203.63;1035847;28;20319;-76
2022/01/21 01:31:36;;;;;;;20.13;2.40;;;;;;;-0.58;100.00;103205.31;1036932;28;20327;-76
2022/01/21 01:32:08;;;;;;;17.83;3.40;;;;;;;-0.57;100.00;103207.00;1039936;28;20770;-76
2022/01/21 01:32:40;;;;;;;11.68;2.35;;;;;;;-0.55;100.00;103202.53;1040291;28;20311;-76
2022/01/21 01:33:15;;;;;;;16.55;2.50;;;;;;;-0.52;100.00;103209.41;1040030;28;20315;-76
2022/01/21 01:33:47;;;;;;;11.25;1.95;;;;;;;-0.57;100.00;103207.00;1040067;28;20358;-76
2022/01/21 01:34:19;;;;;;;20.17;2.70;;;;;;;-0.54;100.00;103208.66;1035844;28;20309;-76
2022/01/21 01:34:51;;;;;;;17.25;2.30;;;;;;;-0.49;100.00;103202.22;1036879;28;20308;-76
2022/01/21 01:35:24;;;;;;;11.38;2.55;;;;;;;-0.51;100.00;103191.00;1036015;28;20317;-75
2022/01/21 01:35:55;;;;;;;10.57;1.60;;;;;;;-0.49;100.00;103199.59;1036749;28;20305;-76
2022/01/21 01:36:27;;;;;;;14.23;3.13;;;;;;;-0.45;100.00;103201.09;1040052;28;20312;-76
2022/01/21 01:37:03;;;;;;;10.18;2.10;;;;;;;-0.45;100.00;103193.25;1036341;28;20304;-76
2022/01/21 01:38:38;;;;;;;21.95;3.38;;;;;;;-0.37;100.00;103188.41;1039958;28;20319;-75
2022/01/21 01:40:52;;;;;;;11.10;2.35;;;;;;;-0.23;100.00;103189.41;1031626;28;20309;-76
2022/01/21 01:41:28;;;;;;;14.98;2.60;;;;;;;-0.19;100.00;103183.06;1031874;28;20676;-76
2022/01/21 01:49:38;;;;;;;6.78;2.10;;;;;;;0.10;100.00;103203.19;1040112;28;20308;-76
2022/01/21 01:50:09;;;;;;;17.67;3.88;;;;;;;0.11;100.00;103194.38;1035877;28;20315;-76
2022/01/21 01:50:41;;;;;;;5.85;1.55;;;;;;;0.17;100.00;103204.50;1035958;28;20338;-76
2022/01/21 01:51:12;;;;;;;18.67;2.72;;;;;;;0.17;100.00;103207.13;1031984;28;20320;-77
2022/01/21 01:51:44;;;;;;;18.75;3.50;;;;;;;0.16;100.00;103210.69;1032671;28;20649;-76
2022/01/21 01:52:17;;;;;;;12.85;2.08;;;;;;;0.19;100.00;103205.25;1040167;28;20306;-76
2022/01/21 01:52:51;;;;;;;11.40;2.25;;;;;;;0.22;100.00;103204.22;1039936;28;20540;-76
2022/01/21 01:53:33;;;;;;;18.40;2.80;;;;;;;0.21;100.00;103192.91;1040328;28;20403;-77
2022/01/21 01:54:10;;;;;;;13.82;2.85;;;;;;;0.23;100.00;103198.03;1039630;28;20300;-76
2022/01/21 01:54:48;;;;;;;14.07;3.63;;;;;;;0.24;100.00;103203.19;1040061;28;20311;-77
2022/01/21 01:55:20;;;;;;;12.70;1.65;;;;;;;0.25;100.00;103199.63;1039251;28;20319;-76
2022/01/21 01:55:52;;;;;;;14.38;2.85;;;;;;;0.28;100.00;103196.88;1042245;28;20308;-76
2022/01/21 01:56:27;;;;;;;17.00;2.95;;;;;;;0.30;100.00;103195.00;1043731;28;20314;-76
2022/01/21 01:56:59;;;;;;;21.42;3.03;;;;;;;0.31;100.00;103195.84;1042900;28;20303;-77
2022/01/21 01:57:30;;;;;;;11.82;1.67;;;;;;;0.33;100.00;103209.69;1040110;28;20782;-76
2022/01/21 01:58:02;;;;;;;16.45;2.25;;;;;;;0.30;100.00;103192.38;1039754;28;20651;-76
2022/01/21 01:58:38;;;;;;;14.20;2.78;;;;;;;0.34;100.00;103189.56;1036516;28;20305;-76
2022/01/21 01:59:10;;;;;;;11.50;1.98;;;;;;;0.46;100.00;103194.06;1035999;28;20309;-76
2022/01/21 01:59:41;;;;;;;13.20;2.85;;;;;;;0.41;100.00;103191.72;1038941;28;20322;-76
2022/01/21 02:00:13;;;;;;;16.73;2.80;;;;;;;0.42;100.00;103193.41;1036901;28;20388;-76
2022/01/21 02:00:45;;;;;;;15.80;3.08;;;;;;;0.42;99.83;103192.56;1040395;28;20678;-76
2022/01/21 02:01:16;;;;;;;18.10;3.20;;;;;;;0.43;99.98;103189.84;1040041;28;20340;-76
2022/01/21 02:01:57;;;;;;;21.58;3.60;;;;;;;0.42;99.68;103192.56;1040016;28;20312;-76
2022/01/21 02:02:29;;;;;;;15.55;2.70;;;;;;;0.41;99.96;103188.25;1040070;28;20330;-77
2022/01/21 02:03:05;;;;;;;13.55;3.35;;;;;;;0.43;99.74;103189.00;1041919;28;20319;-76
2022/01/21 02:03:37;;;;;;;18.17;2.58;;;;;;;0.47;99.54;103185.25;1040177;28;20362;-76
2022/01/21 02:04:12;;;;;;;12.00;2.28;;;;;;;0.49;100.00;103183.38;1041136;28;20308;-76
2022/01/21 02:04:45;;;;;;;17.98;2.80;;;;;;;0.50;99.98;103187.69;1039763;28;20308;-76
2022/01/21 02:05:17;;;;;;;14.77;2.63;;;;;;;0.50;99.63;103192.94;1041233;28;20334;-76
2022/01/21 02:05:48;;;;;;;18.95;2.97;;;;;;;0.50;99.49;103190.31;1040598;28;20311;-76
2022/01/21 02:06:21;;;;;;;14.65;3.63;;;;;;;0.51;100.00;103186.75;1039873;28;20304;-76
2022/01/21 02:06:53;;;;;;;8.15;2.78;;;;;;;0.56;99.74;103184.72;1039246;28;20666;-75
2022/01/21 02:07:24;;;;;;;15.23;3.45;;;;;;;0.58;99.40;103188.09;1039897;28;20303;-75
2022/01/21 02:07:56;;;;;;;10.48;2.22;;;;;;;0.56;99.53;103180.31;1040034;28;20318;-77
2022/01/21 02:08:29;;;;;;;11.27;2.40;;;;;;;0.51;99.40;103182.34;1039879;28;20315;-76
2022/01/21 02:09:00;;;;;;;11.15;2.80;;;;;;;0.53;99.29;103192.75;1040792;28;20303;-76
2022/01/21 02:09:32;;;;;;;17.63;2.95;;;;;;;0.52;99.12;103172.69;1039611;28;20345;-76
2022/01/21 02:10:04;;;;;;;15.27;3.08;;;;;;;0.53;99.31;103179.63;1039945;28;20314;-76
2022/01/21 02:10:36;;;;;;;17.85;2.90;;;;;;;0.50;99.70;103174.56;1039765;28;20304;-76
2022/01/21 02:11:08;;;;;;;15.43;3.25;;;;;;;0.50;99.44;103174.56;1040170;28;20314;-75
2022/01/21 02:11:39;;;;;;;16.42;3.08;;;;;;;0.47;99.86;103172.16;1040100;28;20317;-76
2022/01/21 02:12:11;;;;;;;17.88;3.38;;;;;;;0.48;99.97;103181.69;1040147;28;20315;-76
2022/01/21 02:12:42;;;;;;;11.85;2.30;;;;;;;0.47;99.63;103169.53;1039543;28;20308;-75
2022/01/21 02:13:21;;;;;;;21.58;3.17;;;;;;;0.48;99.39;103179.06;1040143;28;20312;-76
2022/01/21 02:13:58;;;;;;;20.70;2.97;;;;;;;0.45;99.60;103172.25;1040248;28;20307;-76
2022/01/21 02:14:34;;;;;;;14.25;2.33;;;;;;;0.47;99.82;103174.75;1043929;28;20307;-76
2022/01/21 02:15:06;;;;;;;13.07;2.80;;;;;;;0.48;99.83;103181.69;1041237;28;20694;-77
2022/01/21 02:15:41;;;;;;;16.27;2.85;;;;;;;0.45;100.00;103177.47;1040108;28;20682;-77
2022/01/21 02:21:30;;;;;;;12.35;1.92;;;;;;;0.44;100.00;103181.03;1039800;28;20315;-76
2022/01/21 02:22:03;;;;;;;16.42;2.95;;;;;;;0.44;100.00;103191.53;1039839;28;20315;-76
2022/01/21 02:22:39;;;;;;;20.23;3.08;;;;;;;0.42;100.00;103182.06;1039926;28;20310;-76
2022/01/21 02:23:12;;;;;;;15.55;2.97;;;;;;;0.42;100.00;103188.16;1035662;28;20308;-76
2022/01/21 02:23:43;;;;;;;14.57;3.13;;;;;;;0.41;100.00;103183.84;1037491;28;20308;-76
2022/01/21 02:24:29;;;;;;;15.30;3.05;;;;;;;0.38;100.00;103185.81;1039876;28;20315;-75
2022/01/21 02:25:15;;;;;;;17.20;2.90;;;;;;;0.42;100.00;103182.06;1042459;28;20315;-76
2022/01/21 02:25:46;;;;;;;15.18;3.17;;;;;;;0.41;100.00;103183.00;1039745;28;20304;-75
2022/01/21 02:26:18;;;;;;;14.38;2.75;;;;;;;0.41;100.00;103190.88;1039918;28;20633;-75
2022/01/21 02:26:52;;;;;;;14.52;2.80;;;;;;;0.41;100.00;103185.63;1040615;28;20780;-75
2022/01/21 02:27:24;;;;;;;17.27;3.70;;;;;;;0.39;100.00;103185.72;1046742;28;20303;-75
2022/01/21 02:27:59;;;;;;;18.70;3.45;;;;;;;0.37;100.00;103190.22;1048230;28;21003;-75
2022/01/21 02:28:31;;;;;;;16.75;3.45;;;;;;;0.37;100.00;103189.38;1043758;28;20823;-76
2022/01/21 02:29:04;;;;;;;14.98;3.20;;;;;;;0.35;100.00;103191.25;1040018;28;20418;-75
2022/01/21 02:29:44;;;;;;;13.85;3.33;;;;;;;0.36;100.00;103192.94;1035435;28;20443;-76
2022/01/21 02:30:18;;;;;;;21.40;2.78;;;;;;;0.36;100.00;103179.81;1038153;28;20334;-75
2022/01/21 02:30:58;;;;;;;11.52;2.50;;;;;;;0.33;100.00;103185.25;1037802;28;20046;-75
2022/01/21 02:31:30;;;;;;;13.07;2.95;;;;;;;0.29;100.00;103185.44;1039074;28;20342;-75
2022/01/21 02:32:01;;;;;;;16.35;3.95;;;;;;;0.30;100.00;103184.50;1035552;28;20308;-75
2022/01/21 02:32:33;;;;;;;17.08;3.33;;;;;;;0.25;100.00;103183.91;1037576;28;20304;-75
2022/01/21 02:33:05;;;;;;;14.98;3.72;;;;;;;0.23;100.00;103180.53;1039755;28;20312;-75
2022/01/21 02:33:36;;;;;;;25.40;3.38;;;;;;;0.22;100.00;103178.00;1044152;28;20429;-75
2022/01/21 02:34:08;;;;;;;10.40;3.20;;;;;;;0.19;100.00;103184.28;1044185;28;20311;-76
2022/01/21 02:34:41;;;;;;;15.18;4.63;;;;;;;0.18;100.00;103193.09;1043958;28;20394;-75
2022/01/21 02:35:13;;;;;;;19.33;3.25;;;;;;;0.18;100.00;103190.47;1044335;28;20673;-75
2022/01/21 02:35:44;;;;;;;19.70;4.25;;;;;;;0.20;100.00;103177.25;1041483;28;20307;-75
2022/01/21 02:36:16;;;;;;;20.10;5.40;;;;;;;0.20;100.00;103182.50;1040004;28;20308;-75
2022/01/21 02:36:47;;;;;;;21.45;3.60;;;;;;;0.20;100.00;103187.75;1039890;28;20308;-75
2022/01/21 02:37:20;;;;;;;15.23;3.65;;;;;;;0.18;100.00;103179.97;1040115;28;20361;-75
2022/01/21 02:37:52;;;;;;;16.00;3.70;;;;;;;0.19;100.00;103181.66;1039663;28;20673;-75
2022/01/21 02:38:24;;;;;;;15.38;3.00;;;;;;;0.19;100.00;103192.16;1035933;28;20305;-76
2022/01/21 02:38:55;;;;;;;20.17;3.63;;;;;;;0.18;100.00;103185.22;1035606;28;20319;-75
2022/01/21 02:39:26;;;;;;;18.58;3.85;;;;;;;0.19;100.00;103196.53;1036090;28;20301;-76
2022/01/21 02:39:58;;;;;;;29.73;3.72;;;;;;;0.25;100.00;103183.91;1039953;28;20674;-75
2022/01/21 02:40:29;;;;;;;12.50;3.22;;;;;;;0.23;100.00;103193.66;1039982;28;20315;-75
2022/01/21 02:41:01;;;;;;;14.30;3.58;;;;;;;0.25;100.00;103188.31;1040169;28;20304;-75
2022/01/21 02:41:32;;;;;;;11.65;3.25;;;;;;;0.25;100.00;103190.94;1039536;28;20307;-76
2022/01/21 02:42:04;;;;;;;10.57;2.85;;;;;;;0.24;100.00;103184.84;1039774;28;20665;-75
2022/01/21 02:42:36;;;;;;;17.70;3.13;;;;;;;0.24;100.00;103182.22;1039882;28;20690;-75
2022/01/21 02:43:07;;;;;;;11.80;3.80;;;;;;;0.27;100.00;103184.69;1039752;28;20458;-75
2022/01/21 02:43:42;;;;;;;13.90;3.08;;;;;;;0.28;100.00;103181.13;1040246;28;20804;-75
2022/01/21 02:44:16;;;;;;;15.50;3.20;;;;;;;0.30;100.00;103188.91;1040064;28;20793;-75
2022/01/21 02:44:48;;;;;;;18.17;3.53;;;;;;;0.29;100.00;103185.44;1039728;28;20347;-75
2022/01/21 02:45:20;;;;;;;14.05;3.63;;;;;;;0.29;100.00;103195.94;1039596;28;20308;-75
2022/01/21 02:45:51;;;;;;;11.50;2.92;;;;;;;0.30;100.00;103197.63;1039120;28;20409;-75
2022/01/21 02:46:23;;;;;;;23.08;3.40;;;;;;;0.30;100.00;103192.38;1040675;28;20314;-76
2022/01/21 02:46:58;;;;;;;18.75;3.78;;;;;;;0.32;100.00;103197.53;1043760;28;20314;-75
2022/01/21 02:47:30;;;;;;;19.60;3.75;;;;;;;0.30;100.00;103192.38;1043969;28;20311;-75
2022/01/21 02:48:01;;;;;;;18.10;4.18;;;;;;;0.33;100.00;103193.97;1039397;28;20307;-76
2022/01/21 02:48:37;;;;;;;15.68;2.70;;;;;;;0.35;100.00;103188.63;1040061;28;20308;-76
2022/01/21 02:49:09;;;;;;;17.45;2.97;;;;;;;0.33;100.00;103187.88;1043169;28;20661;-76
2022/01/21 02:49:40;;;;;;;18.77;3.00;;;;;;;0.37;100.00;103189.38;1043865;28;20311;-75
2022/01/21 02:50:12;;;;;;;15.85;3.10;;;;;;;0.37;100.00;103187.59;1044259;28;20311;-75
2022/01/21 02:50:44;;;;;;;16.85;3.13;;;;;;;0.39;100.00;103183.09;1044033;28;20776;-75
2022/01/21 02:51:15;;;;;;;15.77;3.33;;;;;;;0.38;100.00;103177.94;1044339;28;20307;-76
2022/01/21 02:51:47;;;;;;;16.58;3.13;;;;;;;0.39;100.00;103185.72;1043752;28;20314;-75
2022/01/21 02:52:22;;;;;;;15.85;2.78;;;;;;;0.41;100.00;103196.13;1043930;28;20311;-76
2022/01/21 02:54:03;;;;;;;19.67;3.35;;;;;;;0.44;100.00;103190.69;1043777;28;20307;-76
2022/01/21 02:54:17;;;;;;;11.32;2.45;;;;;;;0.42;100.00;103187.31;1043626;28;20511;-77
2022/01/21 02:54:49;;;;;;;12.02;3.22;;;;;;;0.46;100.00;103188.81;1043953;28;20307;-75
2022/01/21 02:55:21;;;;;;;15.70;3.10;;;;;;;0.41;100.00;103188.25;1043955;28;20997;-75
2022/01/21 02:55:53;;;;;;;15.20;2.47;;;;;;;0.39;100.00;103190.13;1043583;28;20317;-76
2022/01/21 02:56:24;;;;;;;14.50;4.00;;;;;;;0.40;100.00;103189.19;1043983;28;20831;-75
2022/01/21 02:56:57;;;;;;;13.25;3.50;;;;;;;0.45;100.00;103195.00;1043625;28;20311;-76
2022/01/21 02:57:28;;;;;;;14.73;3.33;;;;;;;0.44;100.00;103185.44;1039758;28;20314;-75
2022/01/21 02:58:00;;;;;;;17.15;2.97;;;;;;;0.37;100.00;103190.22;1040513;28;20312;-76
2022/01/21 02:58:32;;;;;;;14.32;2.85;;;;;;;0.37;100.00;103184.13;1043272;28;20353;-76
2022/01/21 02:59:06;;;;;;;17.02;4.70;;;;;;;0.40;100.00;103183.94;1040530;28;20304;-75
2022/01/21 02:59:38;;;;;;;16.52;2.92;;;;;;;0.39;100.00;103200.63;1043573;28;20311;-76
2022/01/21 03:00:10;;;;;;;7.55;2.38;;;;;;;0.42;100.00;103197.81;1039851;28;20394;-76
2022/01/21 03:00:41;;;;;;;24.55;3.53;;;;;;;0.40;100.00;103195.28;1040271;28;20311;-75
2022/01/21 03:01:14;;;;;;;10.65;2.42;;;;;;;0.42;100.00;103197.81;1044071;28;21035;-76
2022/01/21 03:01:46;;;;;;;12.48;2.58;;;;;;;0.43;100.00;103195.09;1043606;28;20314;-76
2022/01/21 03:02:18;;;;;;;14.63;3.05;;;;;;;0.52;100.00;103198.91;1043893;28;20927;-75
2022/01/21 03:02:50;;;;;;;14.93;2.33;;;;;;;0.55;100.00;103198.75;1041085;28;20429;-76
2022/01/21 03:03:22;;;;;;;13.52;2.90;;;;;;;0.47;100.00;103200.97;1035777;28;20309;-75
2022/01/21 03:03:53;;;;;;;13.95;2.65;;;;;;;0.49;100.00;103193.88;1036177;28;20687;-76
2022/01/21 03:05:12;;;;;;;10.30;2.83;;;;;;;0.45;100.00;103195.00;1037588;28;20675;-76
2022/01/21 03:05:44;;;;;;;15.88;2.72;;;;;;;0.49;100.00;103201.72;1041729;28;20045;-76
2022/01/21 03:06:18;;;;;;;16.45;2.60;;;;;;;0.50;100.00;103198.19;1039611;28;20322;-76
2022/01/21 03:06:49;;;;;;;16.08;2.97;;;;;;;0.52;100.00;103198.91;1035488;28;20384;-76
2022/01/21 03:07:21;;;;;;;13.27;2.28;;;;;;;0.51;100.00;103194.63;1035103;28;20309;-76
2022/01/21 03:07:52;;;;;;;11.77;2.63;;;;;;;0.51;100.00;103192.00;1036285;28;20304;-76
2022/01/21 03:08:24;;;;;;;17.95;3.13;;;;;;;0.50;100.00;103200.78;1039765;28;20308;-76
2022/01/21 03:09:00;;;;;;;19.90;2.75;;;;;;;0.52;100.00;103193.69;1039997;28;20308;-76
2022/01/21 03:09:31;;;;;;;19.08;3.65;;;;;;;0.53;100.00;103198.00;1039597;28;20312;-76
2022/01/21 03:10:04;;;;;;;16.25;3.53;;;;;;;0.51;100.00;103189.38;1039632;28;20304;-76
2022/01/21 03:10:35;;;;;;;10.65;2.83;;;;;;;0.52;100.00;103191.06;1039790;28;20651;-77
2022/01/21 03:11:07;;;;;;;12.52;2.30;;;;;;;0.53;100.00;103190.13;1039897;28;20385;-76
2022/01/21 03:11:38;;;;;;;17.50;3.38;;;;;;;0.55;100.00;103193.53;1039578;28;20315;-76
2022/01/21 03:12:10;;;;;;;14.23;2.75;;;;;;;0.54;100.00;103191.81;1039762;28;20307;-76